createdAt,value
2022-12-01T00:01:40.887Z,14.18
2022-12-01T00:04:14.402Z,11.77
2022-12-01T00:06:45.978Z,13.02
2022-12-01T00:09:31.102Z,14.20
2022-12-01T00:12:06.450Z,18.60
2022-12-01T00:14:38.814Z,15.68
2022-12-01T00:17:11.696Z,15.00
2022-12-01T00:19:42.177Z,11.25
2022-12-01T00:22:12.417Z,16.58
2022-12-01T00:24:45.124Z,17.10
2022-12-01T00:27:15.430Z,16.13
2022-12-01T00:29:45.618Z,20.05
2022-12-01T00:32:18.229Z,14.38
2022-12-01T00:34:48.301Z,14.32
2022-12-01T00:37:21.505Z,18.63
2022-12-01T00:39:56.501Z,14.83
2022-12-01T00:42:26.707Z,17.33
2022-12-01T00:44:59.986Z,18.73
2022-12-01T00:47:31.671Z,17.02
2022-12-01T00:50:04.979Z,18.52
2022-12-01T00:52:38.021Z,20.13
2022-12-01T00:55:13.707Z,14.95
2022-12-01T00:57:43.887Z,14.70
2022-12-01T01:00:19.673Z,13.83
2022-12-01T01:02:52.875Z,15.55
2022-12-01T01:05:23.515Z,28.90
2022-12-01T01:07:53.759Z,18.90
2022-12-01T01:10:36.631Z,21.30
2022-12-01T01:13:06.708Z,22.20
2022-12-01T01:15:37.073Z,16.17
2022-12-01T01:18:12.384Z,18.00
2022-12-01T01:20:42.781Z,15.57
2022-12-01T01:23:12.911Z,12.77
2022-12-01T01:25:48.015Z,13.05
2022-12-01T01:28:18.657Z,15.70
2022-12-01T01:30:51.691Z,11.85
2022-12-01T01:33:22.167Z,10.70
2022-12-01T01:35:54.416Z,10.68
2022-12-01T01:38:24.675Z,9.73
2022-12-01T01:41:03.489Z,7.35
2022-12-01T01:43:48.474Z,6.30
2022-12-01T01:46:23.530Z,8.38
2022-12-01T01:48:57.627Z,9.57
2022-12-01T01:51:31.222Z,9.65
2022-12-01T01:54:05.547Z,9.60
2022-12-01T01:56:39.410Z,7.43
2022-12-01T01:59:10.466Z,9.13
2022-12-01T02:01:40.669Z,7.63
2022-12-01T02:04:11.236Z,7.10
2022-12-01T02:06:41.377Z,6.38
2022-12-01T02:09:13.454Z,6.18
2022-12-01T02:12:11.560Z,7.32
2022-12-01T02:15:06.577Z,6.80
2022-12-01T02:17:43.311Z,7.68
2022-12-01T02:20:35.346Z,4.65
2022-12-01T02:23:27.889Z,7.72
2022-12-01T02:26:19.160Z,7.57
2022-12-01T02:29:09.479Z,11.05
2022-12-01T02:31:49.499Z,7.28
2022-12-01T02:34:28.048Z,8.50
2022-12-01T02:37:03.365Z,8.38
2022-12-01T02:39:38.281Z,8.93
2022-12-01T02:42:35.629Z,10.27
2022-12-01T02:45:09.828Z,10.55
2022-12-01T02:47:45.287Z,10.32
2022-12-01T02:50:16.448Z,16.10
2022-12-01T02:52:49.709Z,20.52
2022-12-01T02:55:19.804Z,20.27
2022-12-01T02:57:50.224Z,21.00
2022-12-01T03:00:21.497Z,18.95
2022-12-01T03:03:24.600Z,18.40
2022-12-01T03:06:02.200Z,17.98
2022-12-01T03:08:46.205Z,14.15
2022-12-01T03:11:29.800Z,12.38
2022-12-01T03:14:11.944Z,14.30
2022-12-01T03:16:52.630Z,16.50
2022-12-01T03:19:35.998Z,15.05
2022-12-01T03:22:16.035Z,17.30
2022-12-01T03:24:50.996Z,16.10
2022-12-01T03:27:28.208Z,19.15
2022-12-01T03:30:04.940Z,13.50
2022-12-01T03:32:41.574Z,12.00
2022-12-01T03:35:19.173Z,15.98
2022-12-01T03:37:54.429Z,16.38
2022-12-01T03:40:28.784Z,16.92
2022-12-01T03:43:02.675Z,12.70
2022-12-01T03:45:44.125Z,15.55
2022-12-01T03:48:23.009Z,15.57
2022-12-01T03:51:08.900Z,14.90
2022-12-01T03:53:48.952Z,14.63
2022-12-01T03:56:23.278Z,11.32
2022-12-01T03:58:59.551Z,13.75
2022-12-01T04:01:36.463Z,12.60
2022-12-01T04:04:08.683Z,14.32
2022-12-01T04:06:43.206Z,15.05
2022-12-01T04:09:13.592Z,19.00
2022-12-01T04:11:58.662Z,14.23
2022-12-01T04:14:32.195Z,13.57
2022-12-01T04:17:05.117Z,11.90
2022-12-01T04:19:37.589Z,15.10
2022-12-01T04:22:13.239Z,15.30
2022-12-01T04:24:45.644Z,13.77
2022-12-01T04:27:16.482Z,17.00
2022-12-01T04:29:47.592Z,12.68
2022-12-01T04:32:24.456Z,13.88
2022-12-01T04:34:56.879Z,15.00
2022-12-01T04:37:29.682Z,14.35
2022-12-01T04:39:59.775Z,12.00
2022-12-01T04:42:30.103Z,12.65
2022-12-01T04:45:00.306Z,15.70
2022-12-01T04:47:30.551Z,21.65
2022-12-01T04:50:00.683Z,18.50
2022-12-01T04:52:35.409Z,19.40
2022-12-01T04:55:08.999Z,20.75
2022-12-01T04:57:39.671Z,16.25
2022-12-01T05:00:13.831Z,19.92
2022-12-01T05:05:14.931Z,14.85
2022-12-01T05:07:48.789Z,16.45
2022-12-01T05:10:21.967Z,18.27
2022-12-01T05:12:52.523Z,18.20
2022-12-01T05:15:22.540Z,15.80
2022-12-01T05:17:55.291Z,18.42
2022-12-01T05:20:40.213Z,17.60
2022-12-01T05:23:17.210Z,14.32
2022-12-01T05:25:50.416Z,15.10
2022-12-01T05:28:27.178Z,14.40
2022-12-01T05:31:01.121Z,15.45
2022-12-01T05:36:02.101Z,19.05
2022-12-01T05:38:34.810Z,15.10
2022-12-01T05:41:05.047Z,14.60
2022-12-01T05:43:35.130Z,18.75
2022-12-01T05:46:05.799Z,16.27
2022-12-01T05:48:35.849Z,14.57
2022-12-01T05:51:14.075Z,22.40
2022-12-01T05:53:49.767Z,15.98
2022-12-01T05:56:21.989Z,15.27
2022-12-01T05:58:55.088Z,16.30
2022-12-01T06:01:25.231Z,14.95
2022-12-01T06:03:56.488Z,23.15
2022-12-01T06:06:26.630Z,23.60
2022-12-01T06:08:59.248Z,16.77
2022-12-01T06:11:31.577Z,16.13
2022-12-01T06:14:09.019Z,19.70
2022-12-01T06:16:41.492Z,19.48
2022-12-01T06:19:14.172Z,22.45
2022-12-01T06:21:46.347Z,18.15
2022-12-01T06:24:19.247Z,17.13
2022-12-01T06:26:51.980Z,18.35
2022-12-01T06:29:22.145Z,14.52
2022-12-01T06:31:55.177Z,13.95
2022-12-01T06:34:25.413Z,16.63
2022-12-01T06:36:57.474Z,18.13
2022-12-01T06:39:30.775Z,16.55
2022-12-01T06:42:00.894Z,20.17
2022-12-01T06:44:31.760Z,11.63
2022-12-01T06:47:01.947Z,15.80
2022-12-01T06:49:32.255Z,19.08
2022-12-01T06:52:02.444Z,20.77
2022-12-01T06:54:39.757Z,17.33
2022-12-01T06:57:12.423Z,15.85
2022-12-01T06:59:42.798Z,13.70
2022-12-01T07:02:14.036Z,19.63
2022-12-01T07:04:44.920Z,18.25
2022-12-01T07:07:15.082Z,15.80
2022-12-01T07:09:51.377Z,16.00
2022-12-01T07:12:26.931Z,18.02
2022-12-01T07:14:58.185Z,18.25
2022-12-01T07:17:28.227Z,18.02
2022-12-01T07:19:58.407Z,17.40
2022-12-01T07:22:32.654Z,18.20
2022-12-01T07:25:09.987Z,17.13
2022-12-01T07:27:40.596Z,18.25
2022-12-01T07:30:12.051Z,21.65
2022-12-01T07:32:43.504Z,19.15
2022-12-01T07:35:13.583Z,21.50
2022-12-01T07:37:45.928Z,16.88
2022-12-01T07:40:19.043Z,19.02
2022-12-01T07:42:49.112Z,21.15
2022-12-01T07:45:19.369Z,17.38
2022-12-01T07:47:49.509Z,17.08
2022-12-01T07:50:19.748Z,16.52
2022-12-01T07:52:52.604Z,18.95
2022-12-01T07:55:25.291Z,20.98
2022-12-01T07:57:55.377Z,20.67
2022-12-01T08:00:26.268Z,19.25
2022-12-01T08:02:56.750Z,15.88
2022-12-01T08:05:27.684Z,17.83
2022-12-01T08:07:58.591Z,20.33
2022-12-01T08:10:33.622Z,18.10
2022-12-01T08:13:03.731Z,15.75
2022-12-01T08:15:33.942Z,17.42
2022-12-01T08:18:07.846Z,17.67
2022-12-01T08:23:08.391Z,13.70
2022-12-01T08:25:41.127Z,11.45
2022-12-01T08:28:11.221Z,11.40
2022-12-01T08:30:44.774Z,12.57
2022-12-01T08:33:14.941Z,13.45
2022-12-01T08:35:49.568Z,13.10
2022-12-01T08:38:19.895Z,12.75
2022-12-01T08:40:52.669Z,11.98
2022-12-01T08:43:49.435Z,11.77
2022-12-01T08:46:21.640Z,12.00
2022-12-01T08:48:51.891Z,14.50
2022-12-01T08:51:25.216Z,12.00
2022-12-01T08:53:58.275Z,10.52
2022-12-01T08:56:34.781Z,10.43
2022-12-01T08:59:05.906Z,12.50
2022-12-01T09:01:52.151Z,13.05
2022-12-01T09:04:23.525Z,14.13
2022-12-01T09:06:57.635Z,10.93
2022-12-01T09:09:30.094Z,11.38
2022-12-01T09:12:03.424Z,10.82
2022-12-01T09:14:33.474Z,13.30
2022-12-01T09:17:03.637Z,12.85
2022-12-01T09:19:34.015Z,9.85
2022-12-01T09:22:04.676Z,12.57
2022-12-01T09:24:37.482Z,10.95
2022-12-01T09:27:22.757Z,11.18
2022-12-01T09:29:55.808Z,11.73
2022-12-01T09:32:26.201Z,13.13
2022-12-01T09:34:56.293Z,13.30
2022-12-01T09:37:29.140Z,10.00
2022-12-01T09:39:59.258Z,10.82
2022-12-01T09:42:35.791Z,11.13
2022-12-01T09:45:10.099Z,12.75
2022-12-01T09:47:42.755Z,11.43
2022-12-01T09:50:18.882Z,9.98
2022-12-01T09:52:53.337Z,14.15
2022-12-01T09:55:26.112Z,11.65
2022-12-01T09:58:01.288Z,13.60
2022-12-01T10:00:36.950Z,10.38
2022-12-01T10:03:24.927Z,14.57
2022-12-01T10:09:01.456Z,12.23
2022-12-01T10:11:38.785Z,11.05
2022-12-01T10:14:20.858Z,13.73
2022-12-01T10:17:03.679Z,12.70
2022-12-01T10:19:42.118Z,10.77
2022-12-01T10:22:27.005Z,10.98
2022-12-01T10:25:09.911Z,14.38
2022-12-01T10:27:51.410Z,8.85
2022-12-01T10:30:26.752Z,7.40
2022-12-01T10:33:01.437Z,12.20
2022-12-01T10:35:37.259Z,9.85
2022-12-01T10:38:18.209Z,6.32
2022-12-01T10:40:50.864Z,7.85
2022-12-01T10:43:20.911Z,9.13
2022-12-01T10:45:57.001Z,7.13
2022-12-01T10:48:32.320Z,8.50
2022-12-01T10:51:20.269Z,9.00
2022-12-01T10:53:50.333Z,6.50
2022-12-01T10:56:23.305Z,5.50
2022-12-01T10:58:55.413Z,5.88
2022-12-01T11:01:35.796Z,6.85
2022-12-01T11:04:11.333Z,7.72
2022-12-01T11:06:41.416Z,7.78
2022-12-01T11:09:26.900Z,6.07
2022-12-01T11:11:59.833Z,5.93
2022-12-01T11:14:40.147Z,6.63
2022-12-01T11:17:29.911Z,7.07
2022-12-01T11:20:00.308Z,5.43
2022-12-01T11:22:40.121Z,7.55
2022-12-01T11:25:23.122Z,7.28
2022-12-01T11:28:01.924Z,6.85
2022-12-01T11:30:37.666Z,9.20
2022-12-01T11:33:18.540Z,8.75
2022-12-01T11:35:51.903Z,10.07
2022-12-01T11:38:32.958Z,6.72
2022-12-01T11:41:06.568Z,18.48
2022-12-01T11:43:47.663Z,9.52
2022-12-01T11:46:33.183Z,10.90
2022-12-01T11:49:06.718Z,9.15
2022-12-01T11:54:20.452Z,7.25
2022-12-01T11:57:17.486Z,8.52
2022-12-01T11:59:42.308Z,8.98
2022-12-01T12:02:26.932Z,9.68
2022-12-01T12:05:37.193Z,7.97
2022-12-01T12:08:18.280Z,7.05
2022-12-01T12:11:02.778Z,9.13
2022-12-01T12:13:55.057Z,9.45
2022-12-01T12:16:35.926Z,7.50
2022-12-01T12:19:33.692Z,7.25
2022-12-01T12:22:24.754Z,5.40
2022-12-01T12:25:05.541Z,12.25
2022-12-01T12:27:49.877Z,9.43
2022-12-01T12:30:26.381Z,9.15
2022-12-01T12:33:23.145Z,8.80
2022-12-01T12:36:03.290Z,10.90
2022-12-01T12:38:49.033Z,9.35
2022-12-01T12:41:31.505Z,8.65
2022-12-01T12:44:36.641Z,9.18
2022-12-01T12:47:22.311Z,9.27
2022-12-01T12:50:01.828Z,7.47
2022-12-01T12:52:40.822Z,10.02
2022-12-01T12:55:22.930Z,9.98
2022-12-01T13:00:29.326Z,10.02
2022-12-01T13:03:06.363Z,8.60
2022-12-01T13:05:44.335Z,10.38
2022-12-01T13:08:19.054Z,8.93
2022-12-01T13:11:00.840Z,8.35
2022-12-01T13:13:37.702Z,8.93
2022-12-01T13:16:16.267Z,10.23
2022-12-01T13:18:50.552Z,10.68
2022-12-01T13:21:24.056Z,9.55
2022-12-01T13:23:55.471Z,15.05
2022-12-01T13:26:28.634Z,10.20
2022-12-01T13:29:00.807Z,9.63
2022-12-01T13:31:34.086Z,10.80
2022-12-01T13:34:08.873Z,10.67
2022-12-01T13:36:46.733Z,11.95
2022-12-01T13:39:22.743Z,10.93
2022-12-01T13:42:10.537Z,10.80
2022-12-01T13:44:45.834Z,10.48
2022-12-01T13:47:35.754Z,10.82
2022-12-01T13:50:35.573Z,10.75
2022-12-01T13:53:38.634Z,12.25
2022-12-01T13:56:28.143Z,10.57
2022-12-01T13:59:01.239Z,11.07
2022-12-01T14:01:52.182Z,14.43
2022-12-01T14:04:37.327Z,13.82
2022-12-01T14:07:29.601Z,14.60
2022-12-01T14:10:32.026Z,14.60
2022-12-01T14:13:12.611Z,12.60
2022-12-01T14:15:46.167Z,11.77
2022-12-01T14:18:35.998Z,13.15
2022-12-01T14:21:11.411Z,14.00
2022-12-01T14:24:01.156Z,12.48
2022-12-01T14:26:34.830Z,15.48
2022-12-01T14:29:26.899Z,19.23
2022-12-01T14:32:26.809Z,14.55
2022-12-01T14:35:15.716Z,12.13
2022-12-01T14:37:53.437Z,11.00
2022-12-01T14:40:31.058Z,15.57
2022-12-01T14:43:17.377Z,13.10
2022-12-01T14:46:04.364Z,16.08
2022-12-01T14:48:40.514Z,14.98
2022-12-01T14:51:30.085Z,13.77
2022-12-01T14:54:02.564Z,17.77
2022-12-01T14:56:39.392Z,16.83
2022-12-01T14:59:18.622Z,16.83
2022-12-01T15:01:51.554Z,17.13
2022-12-01T15:04:22.243Z,16.38
2022-12-01T15:06:59.551Z,14.45
2022-12-01T15:09:34.616Z,18.85
2022-12-01T15:12:07.981Z,14.07
2022-12-01T15:14:40.355Z,17.23
2022-12-01T15:17:10.479Z,12.95
2022-12-01T15:19:44.166Z,16.02
2022-12-01T15:22:23.289Z,17.15
2022-12-01T15:24:53.412Z,15.82
2022-12-01T15:27:29.687Z,16.50
2022-12-01T15:30:04.938Z,19.15
2022-12-01T15:32:42.745Z,21.20
2022-12-01T15:35:21.480Z,17.88
2022-12-01T15:37:55.360Z,19.42
2022-12-01T15:41:13.280Z,15.88
2022-12-01T15:43:21.798Z,18.13
2022-12-01T15:45:59.453Z,17.15
2022-12-01T15:48:34.384Z,23.98
2022-12-01T15:51:11.421Z,18.17
2022-12-01T15:53:50.811Z,15.85
2022-12-01T15:56:27.996Z,20.52
2022-12-01T15:59:03.588Z,21.75
2022-12-01T16:01:39.977Z,18.13
2022-12-01T16:04:20.547Z,23.27
2022-12-01T16:07:01.184Z,22.75
2022-12-01T16:09:38.605Z,24.10
2022-12-01T16:12:22.864Z,20.77
2022-12-01T16:14:57.054Z,20.02
2022-12-01T16:17:28.229Z,23.13
2022-12-01T16:20:26.871Z,22.05
2022-12-01T16:23:00.020Z,19.20
2022-12-01T16:25:43.579Z,22.15
2022-12-01T16:28:25.273Z,20.30
2022-12-01T16:30:58.445Z,17.23
2022-12-01T16:33:30.565Z,19.77
2022-12-01T16:36:07.079Z,23.67
2022-12-01T16:38:42.752Z,19.98
2022-12-01T16:41:38.299Z,26.80
2022-12-01T16:44:28.132Z,23.70
2022-12-01T16:46:59.261Z,29.50
2022-12-01T16:49:35.054Z,35.58
2022-12-01T16:52:42.502Z,26.88
2022-12-01T16:54:58.598Z,27.98
2022-12-01T16:57:38.262Z,35.78
2022-12-01T17:00:11.260Z,34.25
2022-12-01T17:02:43.653Z,35.63
2022-12-01T17:05:16.747Z,29.48
2022-12-01T17:07:54.603Z,25.38
2022-12-01T17:10:27.404Z,31.20
2022-12-01T17:13:02.931Z,26.27
2022-12-01T17:15:36.472Z,32.85
2022-12-01T17:18:12.022Z,44.65
2022-12-01T17:20:44.738Z,31.23
2022-12-01T17:23:15.106Z,32.47
2022-12-01T17:25:45.479Z,35.17
2022-12-01T17:28:18.156Z,30.75
2022-12-01T17:30:48.354Z,37.05
2022-12-01T17:33:19.675Z,32.05
2022-12-01T17:35:52.832Z,33.63
2022-12-01T17:38:24.175Z,34.90
2022-12-01T17:41:03.366Z,49.10
2022-12-01T17:43:39.528Z,57.58
2022-12-01T17:46:13.852Z,66.38
2022-12-01T17:48:47.307Z,49.22
2022-12-01T17:51:18.212Z,39.97
2022-12-01T17:53:48.309Z,57.83
2022-12-01T17:56:20.735Z,50.53
2022-12-01T17:58:55.038Z,43.60
2022-12-01T18:01:30.006Z,36.97
2022-12-01T18:04:01.339Z,30.35
2022-12-01T18:06:31.555Z,31.35
2022-12-01T18:09:02.949Z,31.60
2022-12-01T18:11:34.246Z,29.17
2022-12-01T18:14:07.060Z,25.02
2022-12-01T18:16:38.604Z,26.35
2022-12-01T18:19:12.828Z,27.55
2022-12-01T18:21:45.763Z,30.35
2022-12-01T18:24:18.700Z,33.30
2022-12-01T18:26:48.904Z,30.80
2022-12-01T18:29:28.819Z,26.15
2022-12-01T18:31:59.764Z,28.58
2022-12-01T18:34:31.250Z,29.88
2022-12-01T18:37:01.374Z,27.38
2022-12-01T18:39:31.876Z,31.33
2022-12-01T18:42:02.150Z,30.40
2022-12-01T18:44:43.285Z,30.42
2022-12-01T18:47:16.464Z,23.85
2022-12-01T18:49:47.111Z,32.75
2022-12-01T18:52:20.144Z,29.83
2022-12-01T18:54:53.240Z,36.38
2022-12-01T18:57:23.453Z,43.25
2022-12-01T18:59:59.038Z,42.90
2022-12-01T19:02:32.228Z,42.58
2022-12-01T19:05:02.643Z,46.20
2022-12-01T19:07:33.840Z,35.08
2022-12-01T19:10:06.540Z,40.10
2022-12-01T19:12:41.019Z,39.88
2022-12-01T19:15:22.849Z,33.90
2022-12-01T19:17:54.650Z,35.63
2022-12-01T19:20:24.737Z,41.50
2022-12-01T19:22:55.213Z,47.20
2022-12-01T19:25:25.431Z,40.72
2022-12-01T19:27:55.637Z,41.05
2022-12-01T19:30:28.479Z,40.38
2022-12-01T19:32:59.012Z,41.53
2022-12-01T19:35:30.293Z,41.78
2022-12-01T19:38:03.683Z,43.35
2022-12-01T19:40:33.981Z,37.28
2022-12-01T19:43:09.546Z,43.30
2022-12-01T19:45:43.835Z,41.83
2022-12-01T19:48:17.828Z,34.65
2022-12-01T19:53:20.893Z,25.25
2022-12-01T19:55:53.876Z,25.27
2022-12-01T19:58:25.645Z,23.23
2022-12-01T20:00:58.437Z,25.80
2022-12-01T20:03:28.677Z,25.83
2022-12-01T20:06:06.163Z,33.80
2022-12-01T20:08:36.728Z,29.00
2022-12-01T20:11:10.275Z,29.00
2022-12-01T20:13:42.149Z,27.83
2022-12-01T20:16:17.512Z,27.80
2022-12-01T20:18:48.006Z,28.23
2022-12-01T20:21:20.748Z,27.00
2022-12-01T20:23:53.166Z,31.27
2022-12-01T20:26:28.959Z,27.58
2022-12-01T20:29:03.362Z,23.00
2022-12-01T20:31:40.822Z,28.90
2022-12-01T20:34:13.091Z,26.35
2022-12-01T20:36:44.864Z,33.97
2022-12-01T20:39:15.845Z,25.95
2022-12-01T20:41:48.371Z,27.63
2022-12-01T20:44:20.354Z,28.02
2022-12-01T20:46:53.032Z,23.15
2022-12-01T20:49:30.773Z,23.08
2022-12-01T20:52:01.936Z,26.65
2022-12-01T20:54:31.982Z,26.88
2022-12-01T20:57:02.238Z,25.20
2022-12-01T20:59:32.469Z,32.78
2022-12-01T21:02:05.256Z,30.55
2022-12-01T21:04:35.296Z,38.03
2022-12-01T21:07:12.592Z,34.20
2022-12-01T21:09:42.908Z,51.80
2022-12-01T21:12:29.475Z,45.22
2022-12-01T21:15:09.098Z,35.63
2022-12-01T21:17:46.795Z,38.10
2022-12-01T21:20:25.271Z,47.10
2022-12-01T21:22:56.530Z,39.10
2022-12-01T21:25:27.205Z,42.35
2022-12-01T21:28:02.771Z,52.67
2022-12-01T21:30:33.973Z,46.38
2022-12-01T21:33:19.868Z,37.83
2022-12-01T21:35:53.207Z,38.38
2022-12-01T21:38:23.597Z,38.97
2022-12-01T21:40:56.162Z,37.13
2022-12-01T21:43:33.882Z,33.13
2022-12-01T21:46:18.035Z,40.95
2022-12-01T21:48:52.959Z,45.28
2022-12-01T21:51:30.651Z,39.55
2022-12-01T21:54:01.233Z,44.10
2022-12-01T21:56:37.294Z,41.58
2022-12-01T21:59:18.306Z,40.33
2022-12-01T22:01:49.884Z,41.85
2022-12-01T22:04:24.037Z,38.22
2022-12-01T22:06:56.151Z,31.02
2022-12-01T22:09:30.186Z,32.47
2022-12-01T22:12:02.857Z,35.35
2022-12-01T22:14:45.047Z,35.08
2022-12-01T22:17:21.469Z,31.00
2022-12-01T22:19:59.025Z,28.45
2022-12-01T22:22:30.565Z,31.65
2022-12-01T22:25:11.830Z,31.63
2022-12-01T22:27:44.075Z,29.15
2022-12-01T22:30:20.451Z,32.40
2022-12-01T22:33:01.534Z,27.42
2022-12-01T22:35:48.633Z,34.03
2022-12-01T22:38:24.720Z,25.80
2022-12-01T22:40:59.967Z,36.60
2022-12-01T22:43:43.158Z,32.00
2022-12-01T22:46:39.843Z,29.83
2022-12-01T22:49:20.365Z,27.10
2022-12-01T22:51:53.712Z,27.15
2022-12-01T22:54:40.483Z,32.92
2022-12-01T22:57:31.234Z,27.92
2022-12-01T23:00:04.490Z,27.08
2022-12-01T23:02:37.322Z,27.38
2022-12-01T23:05:21.978Z,32.60
2022-12-01T23:07:56.290Z,28.23
2022-12-01T23:10:28.252Z,28.13
2022-12-01T23:13:02.418Z,25.98
2022-12-01T23:15:36.436Z,24.52
2022-12-01T23:18:14.672Z,26.23
2022-12-01T23:20:46.471Z,28.88
2022-12-01T23:23:21.458Z,33.83
2022-12-01T23:25:54.207Z,28.08
2022-12-01T23:28:30.127Z,26.00
2022-12-01T23:31:03.694Z,26.63
2022-12-01T23:33:37.632Z,27.40
2022-12-01T23:36:19.333Z,23.95
2022-12-01T23:38:54.680Z,26.20
2022-12-01T23:41:36.136Z,26.65
2022-12-01T23:44:14.820Z,24.42
2022-12-01T23:46:45.095Z,25.48
2022-12-01T23:49:18.951Z,26.65
2022-12-01T23:51:52.156Z,26.58
2022-12-01T23:54:29.963Z,28.77
2022-12-01T23:57:05.335Z,24.05
2022-12-01T23:59:35.497Z,25.92
